sensor_id;sensor_type;location;lat;lon;timestamp;P1;durP1;ratioP1;P2;durP2;ratioP2
20229;SDS011;12195;55.790;37.572;2022-07-06T00:00:40;15.58;;;12.45;;
20229;SDS011;12195;55.790;37.572;2022-07-06T00:03:12;13.93;;;12.20;;
20229;SDS011;12195;55.790;37.572;2022-07-06T00:05:45;15.58;;;12.55;;
20229;SDS011;12195;55.790;37.572;2022-07-06T00:08:17;15.65;;;12.78;;
20229;SDS011;12195;55.790;37.572;2022-07-06T00:10:50;16.30;;;12.50;;
20229;SDS011;12195;55.790;37.572;2022-07-06T00:13:22;15.48;;;11.88;;
20229;SDS011;12195;55.790;37.572;2022-07-06T00:15:54;14.85;;;11.50;;
20229;SDS011;12195;55.790;37.572;2022-07-06T00:18:26;17.27;;;12.05;;
20229;SDS011;12195;55.790;37.572;2022-07-06T00:20:59;16.77;;;12.43;;
20229;SDS011;12195;55.790;37.572;2022-07-06T00:23:31;15.38;;;11.95;;
20229;SDS011;12195;55.790;37.572;2022-07-06T00:26:03;13.60;;;11.48;;
20229;SDS011;12195;55.790;37.572;2022-07-06T00:28:36;17.37;;;12.20;;
20229;SDS011;12195;55.790;37.572;2022-07-06T00:31:08;14.38;;;12.13;;
20229;SDS011;12195;55.790;37.572;2022-07-06T00:33:41;16.27;;;12.20;;
20229;SDS011;12195;55.790;37.572;2022-07-06T00:36:13;22.15;;;12.58;;
20229;SDS011;12195;55.790;37.572;2022-07-06T00:38:47;23.92;;;12.90;;
20229;SDS011;12195;55.790;37.572;2022-07-06T00:41:19;20.02;;;12.40;;
20229;SDS011;12195;55.790;37.572;2022-07-06T00:43:52;17.37;;;12.30;;
20229;SDS011;12195;55.790;37.572;2022-07-06T00:46:31;15.10;;;12.70;;
20229;SDS011;12195;55.790;37.572;2022-07-06T00:49:02;14.55;;;13.00;;
20229;SDS011;12195;55.790;37.572;2022-07-06T00:51:35;14.07;;;12.68;;
20229;SDS011;12195;55.790;37.572;2022-07-06T00:54:08;13.45;;;12.05;;
20229;SDS011;12195;55.790;37.572;2022-07-06T00:56:41;38.17;;;16.07;;
20229;SDS011;12195;55.790;37.572;2022-07-06T00:59:13;18.32;;;13.90;;
20229;SDS011;12195;55.790;37.572;2022-07-06T01:01:45;16.77;;;14.13;;
20229;SDS011;12195;55.790;37.572;2022-07-06T01:04:17;18.17;;;13.95;;
20229;SDS011;12195;55.790;37.572;2022-07-06T01:06:50;15.58;;;13.95;;
20229;SDS011;12195;55.790;37.572;2022-07-06T01:09:23;16.60;;;14.33;;
20229;SDS011;12195;55.790;37.572;2022-07-06T01:11:55;21.17;;;14.25;;
20229;SDS011;12195;55.790;37.572;2022-07-06T01:14:28;21.15;;;13.83;;
20229;SDS011;12195;55.790;37.572;2022-07-06T01:17:00;23.65;;;14.93;;
20229;SDS011;12195;55.790;37.572;2022-07-06T01:19:34;22.63;;;13.97;;
20229;SDS011;12195;55.790;37.572;2022-07-06T01:22:06;23.00;;;14.35;;
20229;SDS011;12195;55.790;37.572;2022-07-06T01:24:40;22.30;;;14.83;;
20229;SDS011;12195;55.790;37.572;2022-07-06T01:27:12;27.50;;;14.05;;
20229;SDS011;12195;55.790;37.572;2022-07-06T01:29:45;25.48;;;14.05;;
20229;SDS011;12195;55.790;37.572;2022-07-06T01:32:17;23.47;;;14.85;;
20229;SDS011;12195;55.790;37.572;2022-07-06T01:34:49;23.62;;;14.00;;
20229;SDS011;12195;55.790;37.572;2022-07-06T01:37:22;20.92;;;13.48;;
20229;SDS011;12195;55.790;37.572;2022-07-06T01:39:57;25.23;;;14.43;;
20229;SDS011;12195;55.790;37.572;2022-07-06T01:42:32;22.25;;;14.53;;
20229;SDS011;12195;55.790;37.572;2022-07-06T01:45:05;19.55;;;13.72;;
20229;SDS011;12195;55.790;37.572;2022-07-06T01:47:39;19.10;;;13.88;;
20229;SDS011;12195;55.790;37.572;2022-07-06T01:50:12;21.75;;;14.28;;
20229;SDS011;12195;55.790;37.572;2022-07-06T01:52:46;17.20;;;13.37;;
20229;SDS011;12195;55.790;37.572;2022-07-06T01:55:19;18.67;;;13.00;;
20229;SDS011;12195;55.790;37.572;2022-07-06T01:57:51;19.10;;;13.53;;
20229;SDS011;12195;55.790;37.572;2022-07-06T02:00:23;14.63;;;11.43;;
20229;SDS011;12195;55.790;37.572;2022-07-06T02:02:55;18.57;;;12.18;;
20229;SDS011;12195;55.790;37.572;2022-07-06T02:05:27;15.53;;;11.75;;
20229;SDS011;12195;55.790;37.572;2022-07-06T02:08:00;17.52;;;12.20;;
20229;SDS011;12195;55.790;37.572;2022-07-06T02:10:34;14.35;;;12.73;;
20229;SDS011;12195;55.790;37.572;2022-07-06T02:13:06;18.27;;;11.38;;
20229;SDS011;12195;55.790;37.572;2022-07-06T02:15:39;15.25;;;12.23;;
20229;SDS011;12195;55.790;37.572;2022-07-06T02:18:12;15.00;;;11.85;;
20229;SDS011;12195;55.790;37.572;2022-07-06T02:20:45;15.20;;;12.93;;
20229;SDS011;12195;55.790;37.572;2022-07-06T02:23:17;19.40;;;13.65;;
20229;SDS011;12195;55.790;37.572;2022-07-06T02:25:50;15.25;;;11.90;;
20229;SDS011;12195;55.790;37.572;2022-07-06T02:28:22;15.90;;;11.95;;
20229;SDS011;12195;55.790;37.572;2022-07-06T02:30:55;17.05;;;12.63;;
20229;SDS011;12195;55.790;37.572;2022-07-06T02:33:28;15.78;;;12.85;;
20229;SDS011;12195;55.790;37.572;2022-07-06T02:36:01;15.25;;;12.50;;
20229;SDS011;12195;55.790;37.572;2022-07-06T02:38:34;16.77;;;13.68;;
20229;SDS011;12195;55.790;37.572;2022-07-06T02:41:07;17.57;;;13.08;;
20229;SDS011;12195;55.790;37.572;2022-07-06T02:43:39;15.78;;;12.75;;
20229;SDS011;12195;55.790;37.572;2022-07-06T02:46:13;17.77;;;12.53;;
20229;SDS011;12195;55.790;37.572;2022-07-06T02:48:47;17.95;;;11.97;;
20229;SDS011;12195;55.790;37.572;2022-07-06T02:51:20;16.95;;;12.53;;
20229;SDS011;12195;55.790;37.572;2022-07-06T02:53:54;13.75;;;12.10;;
20229;SDS011;12195;55.790;37.572;2022-07-06T02:56:27;17.37;;;12.70;;
20229;SDS011;12195;55.790;37.572;2022-07-06T02:58:59;14.68;;;12.07;;
20229;SDS011;12195;55.790;37.572;2022-07-06T03:01:32;19.73;;;13.65;;
20229;SDS011;12195;55.790;37.572;2022-07-06T03:04:05;14.85;;;11.45;;
20229;SDS011;12195;55.790;37.572;2022-07-06T03:06:37;15.28;;;11.43;;
20229;SDS011;12195;55.790;37.572;2022-07-06T03:09:10;13.32;;;11.88;;
20229;SDS011;12195;55.790;37.572;2022-07-06T03:11:42;14.00;;;12.07;;
20229;SDS011;12195;55.790;37.572;2022-07-06T03:14:15;13.55;;;11.08;;
20229;SDS011;12195;55.790;37.572;2022-07-06T03:16:49;17.07;;;12.28;;
20229;SDS011;12195;55.790;37.572;2022-07-06T03:19:22;15.63;;;11.95;;
20229;SDS011;12195;55.790;37.572;2022-07-06T03:21:55;16.52;;;13.20;;
20229;SDS011;12195;55.790;37.572;2022-07-06T03:24:27;16.57;;;12.75;;
20229;SDS011;12195;55.790;37.572;2022-07-06T03:27:00;14.53;;;11.57;;
20229;SDS011;12195;55.790;37.572;2022-07-06T03:29:34;15.95;;;11.90;;
20229;SDS011;12195;55.790;37.572;2022-07-06T03:32:07;18.07;;;12.50;;
20229;SDS011;12195;55.790;37.572;2022-07-06T03:34:39;13.50;;;10.85;;
20229;SDS011;12195;55.790;37.572;2022-07-06T03:37:12;16.35;;;11.53;;
20229;SDS011;12195;55.790;37.572;2022-07-06T03:39:45;14.13;;;10.25;;
20229;SDS011;12195;55.790;37.572;2022-07-06T03:42:18;11.53;;;10.32;;
20229;SDS011;12195;55.790;37.572;2022-07-06T03:44:52;19.23;;;11.00;;
20229;SDS011;12195;55.790;37.572;2022-07-06T03:47:25;19.92;;;13.43;;
20229;SDS011;12195;55.790;37.572;2022-07-06T03:49:58;24.90;;;11.65;;
20229;SDS011;12195;55.790;37.572;2022-07-06T03:52:31;11.50;;;10.30;;
20229;SDS011;12195;55.790;37.572;2022-07-06T03:55:03;12.95;;;10.90;;
20229;SDS011;12195;55.790;37.572;2022-07-06T03:57:37;15.32;;;10.23;;
20229;SDS011;12195;55.790;37.572;2022-07-06T04:00:12;17.25;;;10.35;;
20229;SDS011;12195;55.790;37.572;2022-07-06T04:05:19;19.07;;;11.55;;
20229;SDS011;12195;55.790;37.572;2022-07-06T04:07:54;16.48;;;9.95;;
20229;SDS011;12195;55.790;37.572;2022-07-06T04:10:28;13.38;;;9.60;;
20229;SDS011;12195;55.790;37.572;2022-07-06T04:13:00;14.43;;;10.45;;
20229;SDS011;12195;55.790;37.572;2022-07-06T04:15:34;11.40;;;9.17;;
20229;SDS011;12195;55.790;37.572;2022-07-06T04:18:07;10.65;;;8.98;;
20229;SDS011;12195;55.790;37.572;2022-07-06T04:20:42;14.53;;;10.38;;
20229;SDS011;12195;55.790;37.572;2022-07-06T04:23:15;11.60;;;10.20;;
20229;SDS011;12195;55.790;37.572;2022-07-06T04:25:47;11.88;;;9.70;;
20229;SDS011;12195;55.790;37.572;2022-07-06T04:28:20;14.23;;;8.90;;
20229;SDS011;12195;55.790;37.572;2022-07-06T04:30:53;14.07;;;9.20;;
20229;SDS011;12195;55.790;37.572;2022-07-06T04:33:26;15.30;;;10.25;;
20229;SDS011;12195;55.790;37.572;2022-07-06T04:35:59;11.08;;;9.03;;
20229;SDS011;12195;55.790;37.572;2022-07-06T04:38:34;16.02;;;11.35;;
20229;SDS011;12195;55.790;37.572;2022-07-06T04:41:08;11.85;;;9.88;;
20229;SDS011;12195;55.790;37.572;2022-07-06T04:43:41;12.82;;;10.38;;
20229;SDS011;12195;55.790;37.572;2022-07-06T04:46:16;21.07;;;11.78;;
20229;SDS011;12195;55.790;37.572;2022-07-06T04:48:52;12.40;;;8.95;;
20229;SDS011;12195;55.790;37.572;2022-07-06T04:51:26;13.50;;;9.70;;
20229;SDS011;12195;55.790;37.572;2022-07-06T04:53:58;13.60;;;9.80;;
20229;SDS011;12195;55.790;37.572;2022-07-06T04:56:30;15.90;;;10.23;;
20229;SDS011;12195;55.790;37.572;2022-07-06T04:59:03;12.98;;;9.45;;
20229;SDS011;12195;55.790;37.572;2022-07-06T05:01:35;14.98;;;10.53;;
20229;SDS011;12195;55.790;37.572;2022-07-06T05:04:08;12.43;;;9.50;;
20229;SDS011;12195;55.790;37.572;2022-07-06T05:06:42;13.15;;;9.38;;
20229;SDS011;12195;55.790;37.572;2022-07-06T05:09:15;14.23;;;9.25;;
20229;SDS011;12195;55.790;37.572;2022-07-06T05:11:50;15.28;;;9.60;;
20229;SDS011;12195;55.790;37.572;2022-07-06T05:14:22;8.43;;;6.10;;
20229;SDS011;12195;55.790;37.572;2022-07-06T05:16:55;10.55;;;6.20;;
20229;SDS011;12195;55.790;37.572;2022-07-06T05:19:29;11.57;;;6.95;;
20229;SDS011;12195;55.790;37.572;2022-07-06T05:22:03;8.28;;;6.70;;
20229;SDS011;12195;55.790;37.572;2022-07-06T05:24:36;8.95;;;5.83;;
20229;SDS011;12195;55.790;37.572;2022-07-06T05:27:09;10.28;;;7.03;;
20229;SDS011;12195;55.790;37.572;2022-07-06T05:29:43;10.15;;;6.40;;
20229;SDS011;12195;55.790;37.572;2022-07-06T05:32:16;8.08;;;6.83;;
20229;SDS011;12195;55.790;37.572;2022-07-06T05:34:50;7.75;;;6.58;;
20229;SDS011;12195;55.790;37.572;2022-07-06T05:37:22;7.20;;;6.20;;
20229;SDS011;12195;55.790;37.572;2022-07-06T05:39:59;10.43;;;7.83;;
20229;SDS011;12195;55.790;37.572;2022-07-06T05:42:32;10.38;;;7.47;;
20229;SDS011;12195;55.790;37.572;2022-07-06T05:45:05;7.60;;;6.80;;
20229;SDS011;12195;55.790;37.572;2022-07-06T05:47:39;12.58;;;8.50;;
20229;SDS011;12195;55.790;37.572;2022-07-06T05:50:31;7.75;;;6.95;;
20229;SDS011;12195;55.790;37.572;2022-07-06T05:53:05;7.80;;;6.23;;
20229;SDS011;12195;55.790;37.572;2022-07-06T05:55:40;11.43;;;8.80;;
20229;SDS011;12195;55.790;37.572;2022-07-06T05:58:14;12.18;;;8.68;;
20229;SDS011;12195;55.790;37.572;2022-07-06T06:00:47;15.60;;;9.40;;
20229;SDS011;12195;55.790;37.572;2022-07-06T06:03:20;10.32;;;7.78;;
20229;SDS011;12195;55.790;37.572;2022-07-06T06:05:54;11.85;;;8.18;;
20229;SDS011;12195;55.790;37.572;2022-07-06T06:08:27;10.13;;;7.50;;
20229;SDS011;12195;55.790;37.572;2022-07-06T06:11:02;18.55;;;7.25;;
20229;SDS011;12195;55.790;37.572;2022-07-06T06:16:08;15.15;;;7.80;;
20229;SDS011;12195;55.790;37.572;2022-07-06T06:21:14;13.90;;;7.00;;
20229;SDS011;12195;55.790;37.572;2022-07-06T06:23:46;11.80;;;7.65;;
20229;SDS011;12195;55.790;37.572;2022-07-06T06:26:19;9.53;;;7.45;;
20229;SDS011;12195;55.790;37.572;2022-07-06T06:28:54;9.08;;;6.45;;
20229;SDS011;12195;55.790;37.572;2022-07-06T06:31:26;12.40;;;7.60;;
20229;SDS011;12195;55.790;37.572;2022-07-06T06:33:58;15.05;;;8.60;;
20229;SDS011;12195;55.790;37.572;2022-07-06T06:36:31;9.68;;;6.95;;
20229;SDS011;12195;55.790;37.572;2022-07-06T06:39:03;11.60;;;7.72;;
20229;SDS011;12195;55.790;37.572;2022-07-06T06:41:36;12.03;;;7.47;;
20229;SDS011;12195;55.790;37.572;2022-07-06T06:44:09;15.28;;;6.90;;
20229;SDS011;12195;55.790;37.572;2022-07-06T06:46:42;12.47;;;7.00;;
20229;SDS011;12195;55.790;37.572;2022-07-06T06:49:15;14.05;;;7.60;;
20229;SDS011;12195;55.790;37.572;2022-07-06T06:51:48;12.18;;;6.65;;
20229;SDS011;12195;55.790;37.572;2022-07-06T06:54:22;15.83;;;9.03;;
20229;SDS011;12195;55.790;37.572;2022-07-06T06:56:54;14.25;;;6.95;;
20229;SDS011;12195;55.790;37.572;2022-07-06T06:59:26;8.43;;;5.55;;
20229;SDS011;12195;55.790;37.572;2022-07-06T07:01:59;11.68;;;7.45;;
20229;SDS011;12195;55.790;37.572;2022-07-06T07:04:32;15.80;;;7.12;;
20229;SDS011;12195;55.790;37.572;2022-07-06T07:07:06;11.55;;;6.80;;
20229;SDS011;12195;55.790;37.572;2022-07-06T07:09:39;19.80;;;8.70;;
20229;SDS011;12195;55.790;37.572;2022-07-06T07:12:12;14.07;;;8.18;;
20229;SDS011;12195;55.790;37.572;2022-07-06T07:14:46;13.65;;;8.53;;
20229;SDS011;12195;55.790;37.572;2022-07-06T07:17:18;11.93;;;6.22;;
20229;SDS011;12195;55.790;37.572;2022-07-06T07:19:57;7.87;;;6.47;;
20229;SDS011;12195;55.790;37.572;2022-07-06T07:22:30;10.90;;;6.05;;
20229;SDS011;12195;55.790;37.572;2022-07-06T07:25:03;7.53;;;6.72;;
20229;SDS011;12195;55.790;37.572;2022-07-06T07:30:08;10.58;;;5.87;;
20229;SDS011;12195;55.790;37.572;2022-07-06T07:32:41;8.05;;;5.37;;
20229;SDS011;12195;55.790;37.572;2022-07-06T07:35:14;12.45;;;6.92;;
20229;SDS011;12195;55.790;37.572;2022-07-06T07:37:46;9.68;;;7.00;;
20229;SDS011;12195;55.790;37.572;2022-07-06T07:40:22;12.28;;;7.20;;
20229;SDS011;12195;55.790;37.572;2022-07-06T07:42:55;11.70;;;7.10;;
20229;SDS011;12195;55.790;37.572;2022-07-06T07:45:27;12.35;;;7.97;;
20229;SDS011;12195;55.790;37.572;2022-07-06T07:48:00;12.45;;;7.60;;
20229;SDS011;12195;55.790;37.572;2022-07-06T07:50:34;13.10;;;8.20;;
20229;SDS011;12195;55.790;37.572;2022-07-06T07:53:07;15.68;;;9.33;;
20229;SDS011;12195;55.790;37.572;2022-07-06T07:55:40;11.25;;;8.28;;
20229;SDS011;12195;55.790;37.572;2022-07-06T07:58:13;15.55;;;9.78;;
20229;SDS011;12195;55.790;37.572;2022-07-06T08:00:47;12.58;;;8.90;;
20229;SDS011;12195;55.790;37.572;2022-07-06T08:03:19;12.40;;;7.62;;
20229;SDS011;12195;55.790;37.572;2022-07-06T08:05:52;12.37;;;9.20;;
20229;SDS011;12195;55.790;37.572;2022-07-06T08:08:24;14.98;;;8.05;;
20229;SDS011;12195;55.790;37.572;2022-07-06T08:10:57;12.23;;;7.90;;
20229;SDS011;12195;55.790;37.572;2022-07-06T08:16:04;7.90;;;7.10;;
20229;SDS011;12195;55.790;37.572;2022-07-06T08:18:37;9.33;;;7.40;;
20229;SDS011;12195;55.790;37.572;2022-07-06T08:21:12;14.07;;;8.38;;
20229;SDS011;12195;55.790;37.572;2022-07-06T08:23:47;15.78;;;7.92;;
20229;SDS011;12195;55.790;37.572;2022-07-06T08:26:19;14.70;;;7.65;;
20229;SDS011;12195;55.790;37.572;2022-07-06T08:28:51;8.58;;;7.45;;
20229;SDS011;12195;55.790;37.572;2022-07-06T08:31:25;8.38;;;7.35;;
20229;SDS011;12195;55.790;37.572;2022-07-06T08:34:00;11.28;;;8.18;;
20229;SDS011;12195;55.790;37.572;2022-07-06T08:36:33;10.93;;;8.20;;
20229;SDS011;12195;55.790;37.572;2022-07-06T08:39:05;12.73;;;6.53;;
20229;SDS011;12195;55.790;37.572;2022-07-06T08:41:38;9.05;;;8.03;;
20229;SDS011;12195;55.790;37.572;2022-07-06T08:44:17;16.42;;;8.38;;
20229;SDS011;12195;55.790;37.572;2022-07-06T08:46:50;11.05;;;7.80;;
20229;SDS011;12195;55.790;37.572;2022-07-06T08:49:26;8.38;;;7.53;;
20229;SDS011;12195;55.790;37.572;2022-07-06T08:51:59;9.50;;;8.50;;
20229;SDS011;12195;55.790;37.572;2022-07-06T08:54:34;11.10;;;8.30;;
20229;SDS011;12195;55.790;37.572;2022-07-06T08:57:08;16.97;;;8.50;;
20229;SDS011;12195;55.790;37.572;2022-07-06T08:59:40;10.72;;;7.50;;
20229;SDS011;12195;55.790;37.572;2022-07-06T09:02:15;11.00;;;7.15;;
20229;SDS011;12195;55.790;37.572;2022-07-06T09:04:54;9.20;;;7.58;;
20229;SDS011;12195;55.790;37.572;2022-07-06T09:07:29;9.83;;;7.30;;
20229;SDS011;12195;55.790;37.572;2022-07-06T09:10:05;9.90;;;8.18;;
20229;SDS011;12195;55.790;37.572;2022-07-06T09:12:39;13.32;;;8.30;;
20229;SDS011;12195;55.790;37.572;2022-07-06T09:15:12;10.32;;;8.10;;
20229;SDS011;12195;55.790;37.572;2022-07-06T09:17:45;16.93;;;8.35;;
20229;SDS011;12195;55.790;37.572;2022-07-06T09:20:19;15.05;;;8.78;;
20229;SDS011;12195;55.790;37.572;2022-07-06T09:22:56;7.58;;;6.80;;
20229;SDS011;12195;55.790;37.572;2022-07-06T09:25:27;8.70;;;7.20;;
20229;SDS011;12195;55.790;37.572;2022-07-06T09:28:02;10.58;;;7.83;;
20229;SDS011;12195;55.790;37.572;2022-07-06T09:30:35;7.50;;;6.75;;
20229;SDS011;12195;55.790;37.572;2022-07-06T09:33:09;8.55;;;6.65;;
20229;SDS011;12195;55.790;37.572;2022-07-06T09:35:43;11.60;;;9.25;;
20229;SDS011;12195;55.790;37.572;2022-07-06T09:38:16;10.50;;;7.67;;
20229;SDS011;12195;55.790;37.572;2022-07-06T09:40:48;9.98;;;8.30;;
20229;SDS011;12195;55.790;37.572;2022-07-06T09:43:21;15.80;;;7.72;;
20229;SDS011;12195;55.790;37.572;2022-07-06T09:45:56;9.28;;;7.72;;
20229;SDS011;12195;55.790;37.572;2022-07-06T09:48:29;10.38;;;6.70;;
20229;SDS011;12195;55.790;37.572;2022-07-06T09:51:02;13.10;;;7.70;;
20229;SDS011;12195;55.790;37.572;2022-07-06T09:53:37;9.63;;;7.85;;
20229;SDS011;12195;55.790;37.572;2022-07-06T09:56:10;12.50;;;8.33;;
20229;SDS011;12195;55.790;37.572;2022-07-06T09:58:44;10.40;;;8.27;;
20229;SDS011;12195;55.790;37.572;2022-07-06T10:01:25;8.65;;;7.85;;
20229;SDS011;12195;55.790;37.572;2022-07-06T10:04:00;11.53;;;9.13;;
20229;SDS011;12195;55.790;37.572;2022-07-06T10:06:33;11.73;;;8.33;;
20229;SDS011;12195;55.790;37.572;2022-07-06T10:09:06;14.20;;;9.23;;
20229;SDS011;12195;55.790;37.572;2022-07-06T10:12:06;11.70;;;9.08;;
20229;SDS011;12195;55.790;37.572;2022-07-06T10:14:24;12.60;;;8.93;;
20229;SDS011;12195;55.790;37.572;2022-07-06T10:16:54;8.98;;;7.85;;
20229;SDS011;12195;55.790;37.572;2022-07-06T10:19:36;9.33;;;8.10;;
20229;SDS011;12195;55.790;37.572;2022-07-06T10:22:09;12.78;;;8.98;;
20229;SDS011;12195;55.790;37.572;2022-07-06T10:24:44;12.05;;;8.23;;
20229;SDS011;12195;55.790;37.572;2022-07-06T10:27:18;11.45;;;8.43;;
20229;SDS011;12195;55.790;37.572;2022-07-06T10:29:51;9.27;;;8.03;;
20229;SDS011;12195;55.790;37.572;2022-07-06T10:32:24;12.13;;;10.88;;
20229;SDS011;12195;55.790;37.572;2022-07-06T10:34:57;7.92;;;7.12;;
20229;SDS011;12195;55.790;37.572;2022-07-06T10:37:30;8.78;;;7.85;;
20229;SDS011;12195;55.790;37.572;2022-07-06T10:40:08;7.87;;;6.92;;
20229;SDS011;12195;55.790;37.572;2022-07-06T10:43:08;7.22;;;6.53;;
20229;SDS011;12195;55.790;37.572;2022-07-06T10:50:50;11.38;;;9.03;;
20229;SDS011;12195;55.790;37.572;2022-07-06T10:53:25;9.50;;;7.17;;
20229;SDS011;12195;55.790;37.572;2022-07-06T10:56:00;10.78;;;7.72;;
20229;SDS011;12195;55.790;37.572;2022-07-06T10:58:46;9.88;;;7.72;;
20229;SDS011;12195;55.790;37.572;2022-07-06T11:01:25;10.00;;;7.47;;
20229;SDS011;12195;55.790;37.572;2022-07-06T11:06:38;8.68;;;6.50;;
20229;SDS011;12195;55.790;37.572;2022-07-06T11:09:11;9.98;;;7.40;;
20229;SDS011;12195;55.790;37.572;2022-07-06T11:11:46;12.45;;;8.75;;
20229;SDS011;12195;55.790;37.572;2022-07-06T11:14:20;9.23;;;7.67;;
20229;SDS011;12195;55.790;37.572;2022-07-06T11:19:31;9.13;;;7.37;;
20229;SDS011;12195;55.790;37.572;2022-07-06T11:22:08;10.50;;;7.58;;
20229;SDS011;12195;55.790;37.572;2022-07-06T11:24:42;7.30;;;6.60;;
20229;SDS011;12195;55.790;37.572;2022-07-06T11:27:15;9.85;;;6.12;;
20229;SDS011;12195;55.790;37.572;2022-07-06T11:29:48;19.07;;;7.40;;
20229;SDS011;12195;55.790;37.572;2022-07-06T11:32:23;7.42;;;6.40;;
20229;SDS011;12195;55.790;37.572;2022-07-06T11:34:57;7.58;;;6.42;;
20229;SDS011;12195;55.790;37.572;2022-07-06T11:37:31;8.90;;;6.92;;
20229;SDS011;12195;55.790;37.572;2022-07-06T11:40:07;12.28;;;7.12;;
20229;SDS011;12195;55.790;37.572;2022-07-06T11:42:40;11.53;;;7.28;;
20229;SDS011;12195;55.790;37.572;2022-07-06T11:45:25;8.38;;;7.08;;
20229;SDS011;12195;55.790;37.572;2022-07-06T11:48:11;6.83;;;6.05;;
20229;SDS011;12195;55.790;37.572;2022-07-06T11:51:09;6.22;;;4.85;;
20229;SDS011;12195;55.790;37.572;2022-07-06T11:53:29;11.20;;;5.80;;
20229;SDS011;12195;55.790;37.572;2022-07-06T11:56:02;8.13;;;5.47;;
20229;SDS011;12195;55.790;37.572;2022-07-06T11:58:35;6.08;;;5.08;;
20229;SDS011;12195;55.790;37.572;2022-07-06T12:01:11;8.88;;;6.75;;
20229;SDS011;12195;55.790;37.572;2022-07-06T12:03:45;7.62;;;6.60;;
20229;SDS011;12195;55.790;37.572;2022-07-06T12:06:22;7.25;;;5.92;;
20229;SDS011;12195;55.790;37.572;2022-07-06T12:08:57;5.25;;;4.80;;
20229;SDS011;12195;55.790;37.572;2022-07-06T12:11:36;7.65;;;5.08;;
20229;SDS011;12195;55.790;37.572;2022-07-06T12:14:20;7.35;;;5.10;;
20229;SDS011;12195;55.790;37.572;2022-07-06T12:16:50;10.05;;;5.40;;
20229;SDS011;12195;55.790;37.572;2022-07-06T12:19:23;11.68;;;6.20;;
20229;SDS011;12195;55.790;37.572;2022-07-06T12:21:56;8.80;;;5.53;;
20229;SDS011;12195;55.790;37.572;2022-07-06T12:24:30;7.33;;;5.60;;
20229;SDS011;12195;55.790;37.572;2022-07-06T12:27:14;6.25;;;5.15;;
20229;SDS011;12195;55.790;37.572;2022-07-06T12:32:20;11.70;;;6.80;;
20229;SDS011;12195;55.790;37.572;2022-07-06T12:35:08;9.10;;;5.15;;
20229;SDS011;12195;55.790;37.572;2022-07-06T12:37:54;7.95;;;4.92;;
20229;SDS011;12195;55.790;37.572;2022-07-06T12:40:32;5.45;;;4.45;;
20229;SDS011;12195;55.790;37.572;2022-07-06T12:43:07;4.80;;;4.40;;
20229;SDS011;12195;55.790;37.572;2022-07-06T12:45:43;5.20;;;4.53;;
20229;SDS011;12195;55.790;37.572;2022-07-06T12:48:19;11.50;;;7.65;;
20229;SDS011;12195;55.790;37.572;2022-07-06T12:50:53;7.80;;;4.80;;
20229;SDS011;12195;55.790;37.572;2022-07-06T12:53:28;8.10;;;5.03;;
20229;SDS011;12195;55.790;37.572;2022-07-06T12:56:08;6.17;;;4.92;;
20229;SDS011;12195;55.790;37.572;2022-07-06T12:58:57;6.90;;;4.92;;
20229;SDS011;12195;55.790;37.572;2022-07-06T13:01:34;4.45;;;4.00;;
20229;SDS011;12195;55.790;37.572;2022-07-06T13:04:06;6.30;;;5.40;;
20229;SDS011;12195;55.790;37.572;2022-07-06T13:06:40;7.53;;;5.47;;
20229;SDS011;12195;55.790;37.572;2022-07-06T13:09:12;5.72;;;5.00;;
20229;SDS011;12195;55.790;37.572;2022-07-06T13:11:47;7.10;;;4.62;;
20229;SDS011;12195;55.790;37.572;2022-07-06T13:14:21;7.17;;;5.42;;
20229;SDS011;12195;55.790;37.572;2022-07-06T13:16:53;5.00;;;4.60;;
20229;SDS011;12195;55.790;37.572;2022-07-06T13:19:26;7.85;;;4.90;;
20229;SDS011;12195;55.790;37.572;2022-07-06T13:21:59;11.97;;;5.50;;
20229;SDS011;12195;55.790;37.572;2022-07-06T13:24:32;10.07;;;5.50;;
20229;SDS011;12195;55.790;37.572;2022-07-06T13:27:06;10.18;;;6.10;;
20229;SDS011;12195;55.790;37.572;2022-07-06T13:29:39;7.55;;;5.00;;
20229;SDS011;12195;55.790;37.572;2022-07-06T13:32:13;9.85;;;4.85;;
20229;SDS011;12195;55.790;37.572;2022-07-06T13:34:47;8.35;;;4.92;;
20229;SDS011;12195;55.790;37.572;2022-07-06T13:37:21;11.80;;;5.40;;
20229;SDS011;12195;55.790;37.572;2022-07-06T13:39:54;6.65;;;4.08;;
20229;SDS011;12195;55.790;37.572;2022-07-06T13:42:30;6.95;;;4.90;;
20229;SDS011;12195;55.790;37.572;2022-07-06T13:45:02;5.87;;;4.92;;
20229;SDS011;12195;55.790;37.572;2022-07-06T13:47:37;8.15;;;5.30;;
20229;SDS011;12195;55.790;37.572;2022-07-06T13:50:11;5.90;;;4.50;;
20229;SDS011;12195;55.790;37.572;2022-07-06T13:52:46;6.15;;;4.47;;
20229;SDS011;12195;55.790;37.572;2022-07-06T13:55:20;8.40;;;4.30;;
20229;SDS011;12195;55.790;37.572;2022-07-06T13:57:53;9.20;;;6.20;;
20229;SDS011;12195;55.790;37.572;2022-07-06T14:00:25;8.68;;;6.97;;
20229;SDS011;12195;55.790;37.572;2022-07-06T14:02:58;8.15;;;5.50;;
20229;SDS011;12195;55.790;37.572;2022-07-06T14:05:32;10.18;;;5.45;;
20229;SDS011;12195;55.790;37.572;2022-07-06T14:08:04;9.63;;;5.75;;
20229;SDS011;12195;55.790;37.572;2022-07-06T14:10:37;8.13;;;5.97;;
20229;SDS011;12195;55.790;37.572;2022-07-06T14:13:10;11.40;;;6.33;;
20229;SDS011;12195;55.790;37.572;2022-07-06T14:15:44;12.03;;;6.50;;
20229;SDS011;12195;55.790;37.572;2022-07-06T14:18:17;11.18;;;5.67;;
20229;SDS011;12195;55.790;37.572;2022-07-06T14:20:50;8.65;;;6.47;;
20229;SDS011;12195;55.790;37.572;2022-07-06T14:23:25;9.73;;;6.67;;
20229;SDS011;12195;55.790;37.572;2022-07-06T14:25:59;14.58;;;7.83;;
20229;SDS011;12195;55.790;37.572;2022-07-06T14:28:33;8.88;;;6.90;;
20229;SDS011;12195;55.790;37.572;2022-07-06T14:31:08;7.85;;;6.45;;
20229;SDS011;12195;55.790;37.572;2022-07-06T14:33:42;10.45;;;6.45;;
20229;SDS011;12195;55.790;37.572;2022-07-06T14:36:17;11.73;;;7.35;;
20229;SDS011;12195;55.790;37.572;2022-07-06T14:38:50;8.65;;;6.58;;
20229;SDS011;12195;55.790;37.572;2022-07-06T14:41:24;9.30;;;6.47;;
20229;SDS011;12195;55.790;37.572;2022-07-06T14:43:56;9.70;;;7.33;;
20229;SDS011;12195;55.790;37.572;2022-07-06T14:46:30;12.53;;;7.92;;
20229;SDS011;12195;55.790;37.572;2022-07-06T14:49:06;11.90;;;7.85;;
20229;SDS011;12195;55.790;37.572;2022-07-06T14:51:38;12.05;;;7.10;;
20229;SDS011;12195;55.790;37.572;2022-07-06T14:54:11;9.93;;;7.20;;
20229;SDS011;12195;55.790;37.572;2022-07-06T14:56:44;11.70;;;7.78;;
20229;SDS011;12195;55.790;37.572;2022-07-06T14:59:18;10.78;;;6.95;;
20229;SDS011;12195;55.790;37.572;2022-07-06T15:01:54;10.68;;;7.15;;
20229;SDS011;12195;55.790;37.572;2022-07-06T15:04:27;8.53;;;6.70;;
20229;SDS011;12195;55.790;37.572;2022-07-06T15:07:00;11.00;;;6.42;;
20229;SDS011;12195;55.790;37.572;2022-07-06T15:09:33;8.63;;;5.80;;
20229;SDS011;12195;55.790;37.572;2022-07-06T15:12:06;7.40;;;6.30;;
20229;SDS011;12195;55.790;37.572;2022-07-06T15:14:38;19.95;;;7.20;;
20229;SDS011;12195;55.790;37.572;2022-07-06T15:17:11;11.12;;;6.33;;
20229;SDS011;12195;55.790;37.572;2022-07-06T15:19:44;12.25;;;6.78;;
20229;SDS011;12195;55.790;37.572;2022-07-06T15:22:18;6.72;;;5.97;;
20229;SDS011;12195;55.790;37.572;2022-07-06T15:27:24;13.25;;;7.10;;